Penil Barcena — EA3690 — position and weather

sailwx.info

Track history (hours):
 
Tides and Currents Weather Stations Pressure Air Temp Water Temp Dewpoint Dewpoint Depression Visibility Wind Speed Wind Dir Waves Ship Positions

Penil Barcena

Last reported at 2018-Feb-17 00:08 UTC. Time now 2018-Feb-19 18:04 UTC.
Position N 43°32' W 003°36'.

Length 21 m.

Type: Ship. MMSI: 224069650.

Date/timePositionNaut miles runAvg speedWind from/ knotsBaromVisibWave heightAir tempDewpointWater temp
2018-Feb-17 00:08N 43°32' W 003°36'1 7.8
2018-Feb-17 00:00N 43°32' W 003°35'4 7.6
2018-Feb-16 23:29N 43°33' W 003°30'4 7.7
2018-Feb-16 23:00N 43°34' W 003°25'7 7.9
2018-Feb-16 22:06N 43°36' W 003°15'3 8.3
2018-Feb-16 21:48N 43°36' W 003°12'6 8.3
2018-Feb-16 21:05N 43°38' W 003°04'1 8.5
2018-Feb-16 21:00N 43°39' W 003°03'5 8.8
2018-Feb-16 20:29N 43°40' W 002°57'4 9.0
2018-Feb-16 20:00N 43°42' W 002°52'4 8.8
2018-Feb-16 19:30N 43°44' W 002°46'4 8.6
2018-Feb-16 19:00N 43°45' W 002°41'4 8.9
2018-Feb-16 18:30N 43°47' W 002°35'4 9.0
2018-Feb-16 18:00N 43°48' W 002°29'4 8.8
2018-Feb-16 17:30N 43°50' W 002°24'4 8.8
2018-Feb-16 17:00N 43°52' W 002°18'4 8.8
2018-Feb-16 16:31N 43°53' W 002°12'4 8.6
2018-Feb-16 16:00N 43°55' W 002°07'3 5.4
2018-Feb-16 15:31N 43°54' W 002°03'0 0.5
2018-Feb-16 15:00N 43°54' W 002°03'1 1.1
2018-Feb-16 14:30N 43°54' W 002°03'1 1.1
2018-Feb-16 14:01N 43°55' W 002°03'1 1.1
2018-Feb-16 13:30N 43°55' W 002°03'1 1.5
2018-Feb-16 12:57N 43°55' W 002°03'2 5.0
2018-Feb-16 12:30N 43°53' W 002°04'4 8.6
2018-Feb-16 12:01N 43°49' W 002°08'4 7.4
2018-Feb-16 11:30N 43°47' W 002°12'4 8.1
2018-Feb-16 11:01N 43°49' W 002°07'0 0.8
2018-Feb-16 10:31N 43°49' W 002°07'0 0.9
2018-Feb-16 10:00N 43°48' W 002°06'1 1.2
2018-Feb-16 09:30N 43°48' W 002°06'1 1.1
2018-Feb-16 09:00N 43°48' W 002°05'1 1.0
2018-Feb-16 08:30N 43°48' W 002°04'1 2.5
2018-Feb-16 08:00N 43°49' W 002°05'2 3.2
2018-Feb-16 07:30N 43°50' W 002°06'0 0.8
2018-Feb-16 07:00N 43°50' W 002°06'0 1.0
2018-Feb-16 06:30N 43°51' W 002°07'1 1.1
2018-Feb-16 06:00N 43°51' W 002°08'0 0.9
2018-Feb-16 05:30N 43°50' W 002°08'1 1.1
2018-Feb-16 05:00N 43°50' W 002°08'1 1.1
2018-Feb-16 04:30N 43°49' W 002°09'2 4.3
2018-Feb-16 04:00N 43°47' W 002°08'0 0.9
2018-Feb-16 03:31N 43°47' W 002°09'0 0.2
2018-Feb-16 03:01N 43°47' W 002°09'0 0.3
2018-Feb-16 02:30N 43°47' W 002°08'0 0.4
2018-Feb-16 02:00N 43°47' W 002°08'0 0.4
2018-Feb-16 01:30N 43°47' W 002°08'0 0.4
2018-Feb-16 01:01N 43°48' W 002°08'0 0.4
2018-Feb-16 00:30N 43°48' W 002°08'0 0.5
2018-Feb-16 00:00N 43°48' W 002°08'0 0.5
2018-Feb-15 23:30N 43°48' W 002°08'0 0.4
2018-Feb-15 23:00N 43°48' W 002°08'0 0.4
2018-Feb-15 22:30N 43°49' W 002°08'0 0.1
2018-Feb-15 22:00N 43°49' W 002°08'0 0.3
2018-Feb-15 21:30N 43°49' W 002°08'3 6.3
2018-Feb-15 21:00N 43°51' W 002°11'4 7.4
2018-Feb-15 20:30N 43°47' W 002°13'2 4.9
2018-Feb-15 20:01N 43°45' W 002°14'2 4.2
2018-Feb-15 19:30N 43°47' W 002°13'4 8.6
2018-Feb-15 19:00N 43°51' W 002°12'1 2.9
2018-Feb-15 18:31N 43°53' W 002°13'0 0.6
2018-Feb-15 18:00N 43°52' W 002°13'1 1.1
2018-Feb-15 17:30N 43°52' W 002°13'1 1.2
2018-Feb-15 17:01N 43°51' W 002°12'1 1.0
2018-Feb-15 16:30N 43°51' W 002°12'1 1.2
2018-Feb-15 16:01N 43°50' W 002°12'2 3.3
2018-Feb-15 15:31N 43°49' W 002°13'2 4.8
2018-Feb-15 15:01N 43°51' W 002°14'0 0.4
2018-Feb-15 14:30N 43°51' W 002°14'0 1.0
2018-Feb-15 14:01N 43°50' W 002°14'1 1.2
2018-Feb-15 13:31N 43°50' W 002°14'1 1.2
2018-Feb-15 13:01N 43°49' W 002°13'1 1.0
2018-Feb-15 12:30N 43°49' W 002°14'2 4.6
2018-Feb-15 12:01N 43°47' W 002°12'1 2.1
2018-Feb-15 11:30N 43°47' W 002°11'0 0.3
2018-Feb-15 11:00N 43°47' W 002°11'0 0.9
2018-Feb-15 10:30N 43°47' W 002°11'0 0.9
2018-Feb-15 10:01N 43°46' W 002°12'1 1.1
2018-Feb-15 09:31N 43°47' W 002°13'0 0.9
2018-Feb-15 09:00N 43°47' W 002°13'4 7.7
2018-Feb-15 08:31N 43°46' W 002°18'4 8.5
2018-Feb-15 08:01N 43°45' W 002°24'4 8.5
2018-Feb-15 07:31N 43°44' W 002°30'4 8.4
2018-Feb-15 07:01N 43°43' W 002°35'4 8.4
2018-Feb-15 06:30N 43°43' W 002°41'4 8.4
2018-Feb-15 06:01N 43°42' W 002°47'4 8.3
2018-Feb-15 05:30N 43°41' W 002°52'4 8.1
2018-Feb-15 04:59N 43°40' W 002°58'4 8.1
2018-Feb-15 04:30N 43°39' W 003°03'5 8.4
2018-Feb-15 03:58N 43°38' W 003°09'4 8.9
2018-Feb-15 03:29N 43°36' W 003°15'4 8.8
2018-Feb-15 03:00N 43°35' W 003°21'4 9.1
2018-Feb-15 02:30N 43°34' W 003°26'5 9.4
2018-Feb-15 02:01N 43°33' W 003°33'  
Track history (hours):
 
Tides and Currents Weather Stations Pressure Air Temp Water Temp Dewpoint Dewpoint Depression Visibility Wind Speed Wind Dir Waves Ship Positions

Penil Barcena

Last reported at 2018-Feb-17 00:08 UTC. Time now 2018-Feb-19 18:04 UTC.
Position N 43°32' W 003°36'.

Length 21 m.

Type: Ship. MMSI: 224069650.

Date/timePositionNaut miles runAvg speedWind from/ knotsBaromVisibWave heightAir tempDewpointWater temp
2018-Feb-17 00:08N 43°32' W 003°36'1 7.8
2018-Feb-17 00:00N 43°32' W 003°35'4 7.6
2018-Feb-16 23:29N 43°33' W 003°30'4 7.7
2018-Feb-16 23:00N 43°34' W 003°25'7 7.9
2018-Feb-16 22:06N 43°36' W 003°15'3 8.3
2018-Feb-16 21:48N 43°36' W 003°12'6 8.3
2018-Feb-16 21:05N 43°38' W 003°04'1 8.5
2018-Feb-16 21:00N 43°39' W 003°03'5 8.8
2018-Feb-16 20:29N 43°40' W 002°57'4 9.0
2018-Feb-16 20:00N 43°42' W 002°52'4 8.8
2018-Feb-16 19:30N 43°44' W 002°46'4 8.6
2018-Feb-16 19:00N 43°45' W 002°41'4 8.9
2018-Feb-16 18:30N 43°47' W 002°35'4 9.0
2018-Feb-16 18:00N 43°48' W 002°29'4 8.8
2018-Feb-16 17:30N 43°50' W 002°24'4 8.8
2018-Feb-16 17:00N 43°52' W 002°18'4 8.8
2018-Feb-16 16:31N 43°53' W 002°12'4 8.6
2018-Feb-16 16:00N 43°55' W 002°07'3 5.4
2018-Feb-16 15:31N 43°54' W 002°03'0 0.5
2018-Feb-16 15:00N 43°54' W 002°03'1 1.1
2018-Feb-16 14:30N 43°54' W 002°03'1 1.1
2018-Feb-16 14:01N 43°55' W 002°03'1 1.1
2018-Feb-16 13:30N 43°55' W 002°03'1 1.5
2018-Feb-16 12:57N 43°55' W 002°03'2 5.0
2018-Feb-16 12:30N 43°53' W 002°04'4 8.6
2018-Feb-16 12:01N 43°49' W 002°08'4 7.4
2018-Feb-16 11:30N 43°47' W 002°12'4 8.1
2018-Feb-16 11:01N 43°49' W 002°07'0 0.8
2018-Feb-16 10:31N 43°49' W 002°07'0 0.9
2018-Feb-16 10:00N 43°48' W 002°06'1 1.2
2018-Feb-16 09:30N 43°48' W 002°06'1 1.1
2018-Feb-16 09:00N 43°48' W 002°05'1 1.0
2018-Feb-16 08:30N 43°48' W 002°04'1 2.5
2018-Feb-16 08:00N 43°49' W 002°05'2 3.2
2018-Feb-16 07:30N 43°50' W 002°06'0 0.8
2018-Feb-16 07:00N 43°50' W 002°06'0 1.0
2018-Feb-16 06:30N 43°51' W 002°07'1 1.1
2018-Feb-16 06:00N 43°51' W 002°08'0 0.9
2018-Feb-16 05:30N 43°50' W 002°08'1 1.1
2018-Feb-16 05:00N 43°50' W 002°08'1 1.1
2018-Feb-16 04:30N 43°49' W 002°09'2 4.3
2018-Feb-16 04:00N 43°47' W 002°08'0 0.9
2018-Feb-16 03:31N 43°47' W 002°09'0 0.2
2018-Feb-16 03:01N 43°47' W 002°09'0 0.3
2018-Feb-16 02:30N 43°47' W 002°08'0 0.4
2018-Feb-16 02:00N 43°47' W 002°08'0 0.4
2018-Feb-16 01:30N 43°47' W 002°08'0 0.4
2018-Feb-16 01:01N 43°48' W 002°08'0 0.4
2018-Feb-16 00:30N 43°48' W 002°08'0 0.5
2018-Feb-16 00:00N 43°48' W 002°08'0 0.5
2018-Feb-15 23:30N 43°48' W 002°08'0 0.4
2018-Feb-15 23:00N 43°48' W 002°08'0 0.4
2018-Feb-15 22:30N 43°49' W 002°08'0 0.1
2018-Feb-15 22:00N 43°49' W 002°08'0 0.3
2018-Feb-15 21:30N 43°49' W 002°08'3 6.3
2018-Feb-15 21:00N 43°51' W 002°11'4 7.4
2018-Feb-15 20:30N 43°47' W 002°13'2 4.9
2018-Feb-15 20:01N 43°45' W 002°14'2 4.2
2018-Feb-15 19:30N 43°47' W 002°13'4 8.6
2018-Feb-15 19:00N 43°51' W 002°12'1 2.9
2018-Feb-15 18:31N 43°53' W 002°13'0 0.6
2018-Feb-15 18:00N 43°52' W 002°13'1 1.1
2018-Feb-15 17:30N 43°52' W 002°13'1 1.2
2018-Feb-15 17:01N 43°51' W 002°12'1 1.0
2018-Feb-15 16:30N 43°51' W 002°12'1 1.2
2018-Feb-15 16:01N 43°50' W 002°12'2 3.3
2018-Feb-15 15:31N 43°49' W 002°13'2 4.8
2018-Feb-15 15:01N 43°51' W 002°14'0 0.4
2018-Feb-15 14:30N 43°51' W 002°14'0 1.0
2018-Feb-15 14:01N 43°50' W 002°14'1 1.2
2018-Feb-15 13:31N 43°50' W 002°14'1 1.2
2018-Feb-15 13:01N 43°49' W 002°13'1 1.0
2018-Feb-15 12:30N 43°49' W 002°14'2 4.6
2018-Feb-15 12:01N 43°47' W 002°12'1 2.1
2018-Feb-15 11:30N 43°47' W 002°11'0 0.3
2018-Feb-15 11:00N 43°47' W 002°11'0 0.9
2018-Feb-15 10:30N 43°47' W 002°11'0 0.9
2018-Feb-15 10:01N 43°46' W 002°12'1 1.1
2018-Feb-15 09:31N 43°47' W 002°13'0 0.9
2018-Feb-15 09:00N 43°47' W 002°13'4 7.7
2018-Feb-15 08:31N 43°46' W 002°18'4 8.5
2018-Feb-15 08:01N 43°45' W 002°24'4 8.5
2018-Feb-15 07:31N 43°44' W 002°30'4 8.4
2018-Feb-15 07:01N 43°43' W 002°35'4 8.4
2018-Feb-15 06:30N 43°43' W 002°41'4 8.4
2018-Feb-15 06:01N 43°42' W 002°47'4 8.3
2018-Feb-15 05:30N 43°41' W 002°52'4 8.1
2018-Feb-15 04:59N 43°40' W 002°58'4 8.1
2018-Feb-15 04:30N 43°39' W 003°03'5 8.4
2018-Feb-15 03:58N 43°38' W 003°09'4 8.9
2018-Feb-15 03:29N 43°36' W 003°15'4 8.8
2018-Feb-15 03:00N 43°35' W 003°21'4 9.1
2018-Feb-15 02:30N 43°34' W 003°26'5 9.4
2018-Feb-15 02:01N 43°33' W 003°33'  

Dump ship's entire track history